createdAt,value
2022-10-23T01:19:07.407Z,7.67
2022-10-23T01:39:07.384Z,7.35
2022-10-23T01:59:07.334Z,7.21
2022-10-23T02:19:07.313Z,7.32
2022-10-23T02:39:07.273Z,7
2022-10-23T02:59:07.244Z,7.06
2022-10-23T03:19:07.235Z,7.1
2022-10-23T03:39:07.190Z,7.18
2022-10-23T03:59:07.145Z,7.21
2022-10-23T04:19:07.115Z,7.19
2022-10-23T04:39:07.085Z,7.59
2022-10-23T04:59:07.103Z,7.59
2022-10-23T05:19:07.026Z,7.6
2022-10-23T05:39:06.994Z,7.69
2022-10-23T05:59:06.960Z,7.85
2022-10-23T06:19:06.927Z,8.09
2022-10-23T06:39:06.940Z,8.38
2022-10-23T06:59:06.864Z,8.43
2022-10-23T07:19:06.893Z,9
2022-10-23T07:39:06.795Z,9.56
2022-10-23T07:59:06.752Z,10.12
2022-10-23T08:19:06.727Z,10.94
2022-10-23T08:59:06.654Z,13.22
2022-10-23T09:19:09.948Z,14.06
2022-10-23T09:39:06.584Z,14.8
2022-10-23T09:59:06.536Z,15.59
2022-10-23T10:19:06.497Z,16.38
2022-10-23T10:39:06.450Z,16.79
2022-10-23T10:59:06.413Z,16.77
2022-10-23T11:19:09.825Z,16.95
2022-10-23T11:39:06.337Z,17.12
2022-10-23T11:59:06.292Z,17.7
2022-10-23T12:19:06.256Z,18.42
2022-10-23T12:39:06.219Z,18.86
2022-10-23T12:59:06.170Z,19.91
2022-10-23T14:39:05.975Z,20.17
2022-10-23T14:59:05.927Z,19.98
2022-10-23T15:19:05.895Z,19.59
2022-10-23T15:39:05.849Z,19.2
2022-10-23T15:59:05.807Z,18.41
2022-10-23T16:19:05.779Z,17.85
2022-10-23T16:39:05.759Z,17.41
2022-10-23T16:59:05.686Z,17.05
2022-10-23T17:19:11.776Z,16.83
2022-10-23T17:39:05.609Z,16.55
2022-10-23T17:59:05.581Z,16.47
2022-10-23T18:19:05.549Z,16.31
2022-10-23T18:39:05.495Z,16.37
2022-10-23T18:59:05.453Z,16.21
2022-10-23T19:19:05.411Z,16.24
2022-10-23T19:39:05.375Z,16.09
2022-10-23T19:59:05.328Z,15.91
2022-10-23T20:19:05.315Z,15.94
2022-10-23T20:39:05.250Z,16.38
2022-10-23T20:59:05.216Z,16.88
2022-10-23T21:19:05.180Z,17.2
2022-10-23T21:39:05.129Z,16.68
2022-10-23T21:59:07.792Z,16.23
2022-10-23T22:39:05.019Z,15.85
2022-10-23T22:59:04.981Z,15.95
2022-10-23T23:19:04.946Z,15.99
2022-10-23T23:59:04.902Z,16.07
